Time;durP1;ratioP1;P1;durP2;ratioP2;P2;SDS_P1;SDS_P2;PMS_P1;PMS_P2;Temp;Humidity;BMP_temperature;BMP_pressure;BME280_temperature;BME280_humidity;BME280_pressure;Samples;Min_cycle;Max_cycle;Signal;HPM_P1;HPM_P2
2022/08/09 00:00:06;;;;;;;;;;;20.90;90.70;;;;;;4400539;32;19999;-73
2022/08/09 00:02:32;;;;;;;;;;;20.90;90.60;;;;;;4400942;32;20278;-73
2022/08/09 00:04:58;;;;;;;;;;;21.00;90.50;;;;;;4400409;32;20004;-73
2022/08/09 00:07:23;;;;;;;;;;;20.90;90.40;;;;;;4401221;32;19968;-73
2022/08/09 00:09:48;;;;;;;;;;;21.00;90.60;;;;;;4399905;32;19942;-73
2022/08/09 00:12:14;;;;;;;;;;;21.00;90.60;;;;;;4401015;32;19954;-73
2022/08/09 00:14:39;;;;;;;;;;;21.00;90.30;;;;;;4400493;32;19988;-73
2022/08/09 00:17:05;;;;;;;;;;;21.00;90.50;;;;;;4400880;32;19961;-73
2022/08/09 00:19:30;;;;;;;;;;;21.00;90.40;;;;;;4400356;32;19933;-73
2022/08/09 00:21:56;;;;;;;;;;;21.10;90.50;;;;;;4401012;32;19954;-73
2022/08/09 00:24:21;;;;;;;;;;;21.00;90.50;;;;;;4400791;32;19945;-73
2022/08/09 00:26:47;;;;;;;;;;;21.00;90.50;;;;;;4400535;32;19953;-74
2022/08/09 00:29:13;;;;;;;;;;;21.00;90.50;;;;;;4400261;32;20314;-73
2022/08/09 00:31:38;;;;;;;;;;;21.00;90.50;;;;;;4400781;32;19964;-73
2022/08/09 00:34:04;;;;;;;;;;;21.10;90.60;;;;;;4400010;32;19949;-73
2022/08/09 00:36:29;;;;;;;;;;;21.00;90.50;;;;;;4399859;32;19945;-74
2022/08/09 00:38:55;;;;;;;;;;;21.00;90.80;;;;;;4400378;32;19957;-74
2022/08/09 00:41:21;;;;;;;;;;;21.00;90.70;;;;;;4399739;32;19946;-74
2022/08/09 00:43:47;;;;;;;;;;;20.90;90.80;;;;;;4400227;32;19957;-73
2022/08/09 00:46:13;;;;;;;;;;;21.00;90.80;;;;;;4401444;32;19961;-73
2022/08/09 00:48:38;;;;;;;;;;;21.00;90.90;;;;;;4399649;32;19952;-73
2022/08/09 00:51:06;;;;;;;;;;;21.00;90.90;;;;;;4400441;32;20425;-73
2022/08/09 00:53:33;;;;;;;;;;;21.00;90.90;;;;;;4413155;32;20364;-73
2022/08/09 00:55:58;;;;;;;;;;;21.00;90.90;;;;;;4416063;32;19960;-73
2022/08/09 00:58:23;;;;;;;;;;;21.00;90.90;;;;;;4401833;32;19945;-73
2022/08/09 01:00:51;;;;;;;;;;;21.00;91.00;;;;;;4400960;32;19953;-73
2022/08/09 01:03:21;;;;;;;;;;;21.00;91.10;;;;;;4400435;32;19968;-73
2022/08/09 01:05:51;;;;;;;;;;;21.00;91.10;;;;;;4400421;32;20341;-73
2022/08/09 01:08:22;;;;;;;;;;;21.00;91.10;;;;;;4400323;32;20385;-73
2022/08/09 01:11:08;;;;;;;;;;;21.10;91.00;;;;;;4399438;32;19965;-73
2022/08/09 01:13:54;;;;;;;;;;;21.10;91.00;;;;;;4389785;32;19946;-73
2022/08/09 01:16:22;;;;;;;;;;;21.00;91.00;;;;;;4389192;32;20394;-73
2022/08/09 01:18:48;;;;;;;;;;;21.00;91.20;;;;;;4400725;32;19950;-73
2022/08/09 01:21:15;;;;;;;;;;;21.00;91.20;;;;;;4400863;32;19946;-73
2022/08/09 01:23:52;;;;;;;;;;;20.90;91.20;;;;;;4400289;32;19963;-73
2022/08/09 01:26:23;;;;;;;;;;;21.00;91.40;;;;;;4385590;32;19969;-73
2022/08/09 01:28:51;;;;;;;;;;;21.00;91.30;;;;;;4400718;32;19961;-73
2022/08/09 01:31:18;;;;;;;;;;;21.00;91.10;;;;;;4399953;32;19964;-73
2022/08/09 01:33:45;;;;;;;;;;;21.00;91.30;;;;;;4399104;32;20056;-73
2022/08/09 01:36:12;;;;;;;;;;;21.00;91.20;;;;;;4399558;32;19945;-73
2022/08/09 01:38:39;;;;;;;;;;;20.90;91.50;;;;;;4400746;32;19956;-73
2022/08/09 01:41:07;;;;;;;;;;;20.90;91.50;;;;;;4398131;32;20296;-73
2022/08/09 01:43:35;;;;;;;;;;;21.00;91.40;;;;;;4389031;32;19953;-73
2022/08/09 01:46:00;;;;;;;;;;;21.00;91.40;;;;;;4400137;32;19945;-73
2022/08/09 01:48:26;;;;;;;;;;;21.00;91.40;;;;;;4400370;32;19973;-73
2022/08/09 01:50:53;;;;;;;;;;;20.90;91.40;;;;;;4415303;32;19957;-74
2022/08/09 01:53:21;;;;;;;;;;;20.90;91.40;;;;;;4412254;32;20369;-73
2022/08/09 01:55:48;;;;;;;;;;;20.80;91.70;;;;;;4400390;32;19949;-73
2022/08/09 01:58:14;;;;;;;;;;;20.70;91.70;;;;;;4400505;32;19949;-74
2022/08/09 02:00:41;;;;;;;;;;;20.80;91.80;;;;;;4398154;32;20024;-73
2022/08/09 02:03:07;;;;;;;;;;;20.80;91.70;;;;;;4400317;32;19953;-74
2022/08/09 02:05:33;;;;;;;;;;;20.80;91.90;;;;;;4399286;32;19941;-74
2022/08/09 02:08:01;;;;;;;;;;;20.70;92.10;;;;;;4399353;32;19973;-73
2022/08/09 02:10:29;;;;;;;;;;;20.60;92.20;;;;;;4398902;32;20319;-73
2022/08/09 02:12:55;;;;;;;;;;;20.60;92.40;;;;;;4400437;32;19953;-73
2022/08/09 02:15:21;;;;;;;;;;;20.60;92.20;;;;;;4398872;32;19945;-73
2022/08/09 02:17:48;;;;;;;;;;;20.60;92.20;;;;;;4400091;32;19945;-73
2022/08/09 02:20:14;;;;;;;;;;;20.70;92.20;;;;;;4399378;32;19951;-73
2022/08/09 02:22:43;;;;;;;;;;;20.70;92.30;;;;;;4399170;32;20004;-74
2022/08/09 02:25:13;;;;;;;;;;;20.60;92.40;;;;;;4398489;32;20001;-73
2022/08/09 02:27:41;;;;;;;;;;;20.60;92.50;;;;;;4399282;32;20001;-73
2022/08/09 02:30:07;;;;;;;;;;;20.50;92.70;;;;;;4400409;32;20419;-73
2022/08/09 02:32:36;;;;;;;;;;;20.50;92.90;;;;;;4398753;32;19965;-73
2022/08/09 02:35:04;;;;;;;;;;;20.50;92.80;;;;;;4398314;32;20349;-73
2022/08/09 02:37:31;;;;;;;;;;;20.60;92.70;;;;;;4399533;32;19992;-73
2022/08/09 02:40:00;;;;;;;;;;;20.50;92.70;;;;;;4399919;32;19960;-73
2022/08/09 02:42:29;;;;;;;;;;;20.60;92.60;;;;;;4398594;32;19946;-73
2022/08/09 02:45:00;;;;;;;;;;;20.40;93.00;;;;;;4399984;32;19953;-73
2022/08/09 02:47:27;;;;;;;;;;;20.40;92.90;;;;;;4399186;32;20350;-73
2022/08/09 02:49:55;;;;;;;;;;;20.30;93.20;;;;;;4400280;32;20340;-73
2022/08/09 02:52:21;;;;;;;;;;;20.20;93.40;;;;;;4399886;32;19950;-74
2022/08/09 02:54:48;;;;;;;;;;;20.30;93.30;;;;;;4399935;32;19946;-73
2022/08/09 02:57:15;;;;;;;;;;;20.40;93.30;;;;;;4411055;32;20282;-73
2022/08/09 02:59:41;;;;;;;;;;;20.40;93.30;;;;;;4414739;32;19950;-74
2022/08/09 03:02:07;;;;;;;;;;;20.40;93.50;;;;;;4408971;32;19946;-73
2022/08/09 03:04:34;;;;;;;;;;;20.40;93.20;;;;;;4399182;32;19946;-73
2022/08/09 03:07:01;;;;;;;;;;;20.50;93.10;;;;;;4397846;32;20018;-74
2022/08/09 03:09:27;;;;;;;;;;;20.50;93.20;;;;;;4399402;32;19942;-74
2022/08/09 03:11:53;;;;;;;;;;;20.50;93.20;;;;;;4401317;32;19959;-73
2022/08/09 03:14:19;;;;;;;;;;;20.30;93.60;;;;;;4402575;32;20406;-73
2022/08/09 03:16:45;;;;;;;;;;;20.20;94.00;;;;;;4402311;32;19949;-73
2022/08/09 03:19:11;;;;;;;;;;;20.10;94.10;;;;;;4402376;32;19965;-74
2022/08/09 03:21:37;;;;;;;;;;;20.10;93.90;;;;;;4401798;32;20390;-73
2022/08/09 03:24:02;;;;;;;;;;;20.30;93.90;;;;;;4401136;32;20011;-73
2022/08/09 03:26:28;;;;;;;;;;;20.30;93.70;;;;;;4402114;32;19949;-73
2022/08/09 03:28:57;;;;;;;;;;;20.40;93.60;;;;;;4401183;32;20005;-73
2022/08/09 03:31:24;;;;;;;;;;;20.40;93.60;;;;;;4402140;32;19984;-73
2022/08/09 03:33:50;;;;;;;;;;;20.40;93.50;;;;;;4402154;32;19957;-73
2022/08/09 03:36:15;;;;;;;;;;;20.40;93.70;;;;;;4401160;32;20354;-73
2022/08/09 03:38:41;;;;;;;;;;;20.30;93.80;;;;;;4401295;32;19978;-73
2022/08/09 03:41:07;;;;;;;;;;;20.30;93.80;;;;;;4399158;32;20005;-73
2022/08/09 03:43:32;;;;;;;;;;;20.30;93.70;;;;;;4385989;32;19992;-73
2022/08/09 03:45:58;;;;;;;;;;;20.40;93.90;;;;;;4392169;32;19954;-73
2022/08/09 03:48:24;;;;;;;;;;;20.50;93.50;;;;;;4400688;32;19950;-73
2022/08/09 03:50:51;;;;;;;;;;;20.50;93.60;;;;;;4405418;32;19957;-73
2022/08/09 03:53:18;;;;;;;;;;;20.50;93.50;;;;;;4402047;32;19952;-73
2022/08/09 03:55:43;;;;;;;;;;;20.50;93.40;;;;;;4400430;32;19954;-73
2022/08/09 03:58:09;;;;;;;;;;;20.40;93.50;;;;;;4401356;32;19952;-73
2022/08/09 04:00:35;;;;;;;;;;;20.50;93.60;;;;;;4400440;32;19949;-73
2022/08/09 04:03:02;;;;;;;;;;;20.50;93.70;;;;;;4401025;32;19960;-73
2022/08/09 04:05:27;;;;;;;;;;;20.50;93.80;;;;;;4400878;32;19957;-73
2022/08/09 04:07:52;;;;;;;;;;;20.50;93.80;;;;;;4400773;32;19955;-73
2022/08/09 04:10:21;;;;;;;;;;;20.50;93.90;;;;;;4401069;32;19973;-73
2022/08/09 04:12:49;;;;;;;;;;;20.50;93.90;;;;;;4400080;32;19949;-73
2022/08/09 04:15:14;;;;;;;;;;;20.40;93.90;;;;;;4402128;32;19970;-75
2022/08/09 04:17:40;;;;;;;;;;;20.30;94.00;;;;;;4400576;32;20003;-73
2022/08/09 04:20:07;;;;;;;;;;;20.30;94.00;;;;;;4401296;32;19959;-73
2022/08/09 04:22:32;;;;;;;;;;;20.30;94.00;;;;;;4400234;32;20279;-73
2022/08/09 04:24:58;;;;;;;;;;;20.40;94.00;;;;;;4400822;32;19945;-73
2022/08/09 04:27:23;;;;;;;;;;;20.40;94.10;;;;;;4401401;32;20008;-73
2022/08/09 04:29:49;;;;;;;;;;;20.40;94.30;;;;;;4401640;32;19949;-73
2022/08/09 04:32:14;;;;;;;;;;;20.30;94.40;;;;;;4399923;32;20377;-73
2022/08/09 04:34:40;;;;;;;;;;;20.40;94.30;;;;;;4400534;32;20000;-73
2022/08/09 04:37:05;;;;;;;;;;;20.40;94.10;;;;;;4399162;32;19960;-73
2022/08/09 04:39:32;;;;;;;;;;;20.40;94.30;;;;;;4400864;32;19949;-72
2022/08/09 04:41:57;;;;;;;;;;;20.40;94.30;;;;;;4401491;32;19953;-73
2022/08/09 04:44:22;;;;;;;;;;;20.40;94.10;;;;;;4403290;32;20000;-73
2022/08/09 04:46:48;;;;;;;;;;;20.40;94.50;;;;;;4403556;32;19949;-73
2022/08/09 04:49:13;;;;;;;;;;;20.40;94.20;;;;;;4400568;32;20307;-73
2022/08/09 04:51:39;;;;;;;;;;;20.50;94.10;;;;;;4411873;32;85285;-73
2022/08/09 04:54:05;;;;;;;;;;;20.40;94.20;;;;;;4415479;32;20364;-73
2022/08/09 04:56:30;;;;;;;;;;;20.40;94.40;;;;;;4415529;32;19954;-72
2022/08/09 04:58:56;;;;;;;;;;;20.40;94.40;;;;;;4404978;32;19954;-72
2022/08/09 05:01:21;;;;;;;;;;;20.40;94.40;;;;;;4399614;32;19995;-72
2022/08/09 05:03:47;;;;;;;;;;;20.40;94.20;;;;;;4401286;32;19953;-73
2022/08/09 05:06:13;;;;;;;;;;;20.40;94.30;;;;;;4407817;32;20306;-73
2022/08/09 05:08:39;;;;;;;;;;;20.40;94.70;;;;;;4414691;32;19953;-73
2022/08/09 05:11:04;;;;;;;;;;;20.30;95.00;;;;;;4415883;32;19966;-73
2022/08/09 05:13:30;;;;;;;;;;;20.30;94.90;;;;;;4405038;32;19961;-73
2022/08/09 05:15:55;;;;;;;;;;;20.30;94.90;;;;;;4400197;32;19949;-73
2022/08/09 05:18:21;;;;;;;;;;;20.40;95.00;;;;;;4407309;32;19956;-73
2022/08/09 05:20:46;;;;;;;;;;;20.40;94.60;;;;;;4415757;32;19949;-73
2022/08/09 05:23:12;;;;;;;;;;;20.50;94.40;;;;;;4415262;32;19956;-73
2022/08/09 05:25:37;;;;;;;;;;;20.50;94.70;;;;;;4406418;32;19980;-73
2022/08/09 05:28:03;;;;;;;;;;;20.60;94.50;;;;;;4399620;32;20428;-72
2022/08/09 05:30:28;;;;;;;;;;;20.70;94.40;;;;;;4399872;32;20015;-73
2022/08/09 05:32:54;;;;;;;;;;;20.70;94.30;;;;;;4400003;32;20387;-73
2022/08/09 05:35:20;;;;;;;;;;;20.70;94.50;;;;;;4399634;32;19946;-73
2022/08/09 05:37:47;;;;;;;;;;;20.80;94.70;;;;;;4400910;32;19957;-73
2022/08/09 05:40:13;;;;;;;;;;;20.60;94.90;;;;;;4400424;32;20386;-73
2022/08/09 05:42:38;;;;;;;;;;;20.60;95.00;;;;;;4398451;32;19958;-74
2022/08/09 05:45:04;;;;;;;;;;;20.50;95.20;;;;;;4400044;32;19961;-73
2022/08/09 05:47:29;;;;;;;;;;;20.50;95.20;;;;;;4399565;32;20012;-74
2022/08/09 05:49:55;;;;;;;;;;;20.50;95.30;;;;;;4399738;32;19957;-72
2022/08/09 05:52:22;;;;;;;;;;;20.60;95.20;;;;;;4400150;32;19945;-72
2022/08/09 05:54:47;;;;;;;;;;;20.70;95.10;;;;;;4407156;32;19949;-74
2022/08/09 05:57:12;;;;;;;;;;;20.80;95.10;;;;;;4412902;32;20412;-74
2022/08/09 05:59:38;;;;;;;;;;;20.80;94.60;;;;;;4400186;32;19964;-74
2022/08/09 06:02:03;;;;;;;;;;;20.80;94.80;;;;;;4399689;32;20366;-74
2022/08/09 06:04:29;;;;;;;;;;;20.80;94.60;;;;;;4399947;32;19956;-73
2022/08/09 06:06:54;;;;;;;;;;;20.80;94.80;;;;;;4399737;32;19942;-74
2022/08/09 06:09:20;;;;;;;;;;;20.80;94.70;;;;;;4399699;32;20358;-73
2022/08/09 06:11:45;;;;;;;;;;;20.80;94.90;;;;;;4400001;32;19946;-73
2022/08/09 06:14:11;;;;;;;;;;;20.70;94.90;;;;;;4399073;32;20008;-73
2022/08/09 06:16:36;;;;;;;;;;;20.70;94.70;;;;;;4399277;32;19967;-73
2022/08/09 06:19:02;;;;;;;;;;;20.70;94.80;;;;;;4399271;32;19952;-73
2022/08/09 06:21:27;;;;;;;;;;;20.70;94.90;;;;;;4399566;32;20017;-74
2022/08/09 06:23:54;;;;;;;;;;;20.80;94.80;;;;;;4399465;32;19994;-74
2022/08/09 06:26:21;;;;;;;;;;;20.80;94.70;;;;;;4399370;32;19945;-73
2022/08/09 06:28:47;;;;;;;;;;;20.90;94.40;;;;;;4400076;32;19954;-74
2022/08/09 06:31:12;;;;;;;;;;;20.80;94.70;;;;;;4399866;32;19941;-74
2022/08/09 06:33:38;;;;;;;;;;;20.80;94.80;;;;;;4399308;32;20025;-74
2022/08/09 06:36:03;;;;;;;;;;;20.70;94.90;;;;;;4399195;32;20003;-74
2022/08/09 06:38:29;;;;;;;;;;;20.80;94.90;;;;;;4398420;32;20366;-73
2022/08/09 06:40:54;;;;;;;;;;;20.80;94.90;;;;;;4399003;32;19966;-73
2022/08/09 06:43:19;;;;;;;;;;;20.80;95.00;;;;;;4393690;32;19942;-73
2022/08/09 06:45:45;;;;;;;;;;;20.90;94.90;;;;;;4388162;32;19953;-73
2022/08/09 06:48:11;;;;;;;;;;;21.00;94.90;;;;;;4398715;32;20240;-73
2022/08/09 06:50:36;;;;;;;;;;;21.10;94.50;;;;;;4398839;32;20341;-71
2022/08/09 06:53:03;;;;;;;;;;;21.10;94.30;;;;;;4399237;32;19961;-73
2022/08/09 06:55:31;;;;;;;;;;;21.20;94.20;;;;;;4409673;32;19974;-73
2022/08/09 06:57:57;;;;;;;;;;;21.20;94.10;;;;;;4406947;32;20274;-73
2022/08/09 07:00:23;;;;;;;;;;;21.20;94.30;;;;;;4398082;32;19964;-73
2022/08/09 07:02:50;;;;;;;;;;;21.30;94.10;;;;;;4399530;32;19941;-73
2022/08/09 07:05:15;;;;;;;;;;;21.40;94.00;;;;;;4398388;32;19953;-73
2022/08/09 07:07:41;;;;;;;;;;;21.50;93.90;;;;;;4399284;32;19941;-73
2022/08/09 07:10:06;;;;;;;;;;;21.70;93.30;;;;;;4398531;32;19942;-73
2022/08/09 07:12:32;;;;;;;;;;;21.80;93.00;;;;;;4398658;32;20350;-73
2022/08/09 07:14:57;;;;;;;;;;;21.90;93.10;;;;;;4398776;32;19953;-73
2022/08/09 07:17:23;;;;;;;;;;;22.00;92.80;;;;;;4398119;32;19957;-73
2022/08/09 07:19:49;;;;;;;;;;;22.10;92.00;;;;;;4399253;32;19991;-73
2022/08/09 07:22:15;;;;;;;;;;;22.20;92.30;;;;;;4398742;32;19942;-73
2022/08/09 07:24:40;;;;;;;;;;;22.30;92.10;;;;;;4398478;32;19942;-73
2022/08/09 07:27:07;;;;;;;;;;;22.40;91.60;;;;;;4399168;32;19941;-73
2022/08/09 07:29:32;;;;;;;;;;;22.50;91.50;;;;;;4399648;32;20004;-73
2022/08/09 07:32:00;;;;;;;;;;;22.70;91.70;;;;;;4399222;32;20380;-73
2022/08/09 07:34:25;;;;;;;;;;;22.70;91.20;;;;;;4399507;32;19960;-73
2022/08/09 07:36:51;;;;;;;;;;;22.80;91.50;;;;;;4399248;32;19955;-73
2022/08/09 07:39:16;;;;;;;;;;;22.80;91.20;;;;;;4397800;32;20650;-72
2022/08/09 07:41:42;;;;;;;;;;;22.60;90.90;;;;;;4398636;32;19942;-72
2022/08/09 07:44:07;;;;;;;;;;;22.50;91.10;;;;;;4398580;32;20008;-74
2022/08/09 07:46:33;;;;;;;;;;;22.70;91.40;;;;;;4398068;32;19950;-73
2022/08/09 07:48:58;;;;;;;;;;;22.70;90.70;;;;;;4398618;32;19950;-72
2022/08/09 07:51:24;;;;;;;;;;;22.60;90.90;;;;;;4398131;32;19960;-73
2022/08/09 07:53:50;;;;;;;;;;;22.50;91.00;;;;;;4398953;32;20362;-73
2022/08/09 07:56:15;;;;;;;;;;;22.40;91.20;;;;;;4414212;32;20334;-73
2022/08/09 07:58:41;;;;;;;;;;;22.50;91.30;;;;;;4414692;32;19974;-73
2022/08/09 08:01:06;;;;;;;;;;;22.40;91.30;;;;;;4407100;32;20409;-73
2022/08/09 08:03:32;;;;;;;;;;;22.50;91.30;;;;;;4400926;32;19994;-73
2022/08/09 08:05:57;;;;;;;;;;;22.50;91.10;;;;;;4401639;32;20325;-73
2022/08/09 08:08:23;;;;;;;;;;;22.50;90.70;;;;;;4400472;32;20354;-73
2022/08/09 08:10:49;;;;;;;;;;;22.60;90.50;;;;;;4401200;32;20012;-73
2022/08/09 08:13:14;;;;;;;;;;;22.60;90.60;;;;;;4401822;32;19953;-73
2022/08/09 08:15:40;;;;;;;;;;;22.70;90.00;;;;;;4399980;32;19941;-72
2022/08/09 08:18:05;;;;;;;;;;;22.80;88.30;;;;;;4401158;32;19953;-73
2022/08/09 08:20:31;;;;;;;;;;;23.20;88.70;;;;;;4400330;32;19975;-73
2022/08/09 08:22:58;;;;;;;;;;;23.50;87.00;;;;;;4401125;32;20369;-73
2022/08/09 08:25:23;;;;;;;;;;;23.70;85.80;;;;;;4400312;32;19952;-73
2022/08/09 08:27:49;;;;;;;;;;;23.80;86.50;;;;;;4400589;32;19957;-73
2022/08/09 08:30:17;;;;;;;;;;;23.80;85.00;;;;;;4400898;32;19953;-73
2022/08/09 08:32:43;;;;;;;;;;;23.60;84.60;;;;;;4400088;32;19964;-73
2022/08/09 08:35:08;;;;;;;;;;;23.50;84.90;;;;;;4400112;32;19942;-73
2022/08/09 08:37:34;;;;;;;;;;;23.40;85.40;;;;;;4400112;32;20003;-73
2022/08/09 08:39:59;;;;;;;;;;;23.40;84.90;;;;;;4400579;32;19956;-73
2022/08/09 08:42:26;;;;;;;;;;;23.60;84.10;;;;;;4401856;32;20329;-73
2022/08/09 08:44:54;;;;;;;;;;;23.80;83.80;;;;;;4400486;32;19948;-73
2022/08/09 08:47:20;;;;;;;;;;;24.00;83.30;;;;;;4400746;32;19960;-73
2022/08/09 08:49:46;;;;;;;;;;;24.10;83.20;;;;;;4399919;32;19945;-73
2022/08/09 08:52:11;;;;;;;;;;;24.20;82.10;;;;;;4388885;32;19961;-73
2022/08/09 08:54:38;;;;;;;;;;;24.30;81.90;;;;;;4396493;32;19945;-73
2022/08/09 08:57:03;;;;;;;;;;;24.40;81.00;;;;;;4414766;32;20361;-73
2022/08/09 08:59:28;;;;;;;;;;;24.50;81.50;;;;;;4404692;32;20053;-73
2022/08/09 09:01:54;;;;;;;;;;;24.70;80.20;;;;;;4400202;32;19968;-73
2022/08/09 09:04:20;;;;;;;;;;;24.80;79.90;;;;;;4400144;32;19946;-73
2022/08/09 09:06:47;;;;;;;;;;;24.70;80.50;;;;;;4399936;32;20152;-73
2022/08/09 09:09:14;;;;;;;;;;;24.90;79.20;;;;;;4400095;32;19992;-73
2022/08/09 09:11:40;;;;;;;;;;;25.00;78.70;;;;;;4401039;32;19953;-73
2022/08/09 09:14:12;;;;;;;;;;;25.10;78.00;;;;;;4400873;32;19948;-73
2022/08/09 09:16:38;;;;;;;;;;;25.10;77.50;;;;;;4399196;32;19961;-73
2022/08/09 09:19:05;;;;;;;;;;;25.00;77.50;;;;;;4399730;32;20009;-73
2022/08/09 09:21:30;;;;;;;;;;;25.00;78.00;;;;;;4399314;32;19945;-73
2022/08/09 09:24:01;;;;;;;;;;;25.10;78.50;;;;;;4399904;32;19950;-73
2022/08/09 09:26:26;;;;;;;;;;;25.30;77.20;;;;;;4400963;32;20295;-73
2022/08/09 09:28:52;;;;;;;;;;;25.50;77.10;;;;;;4399415;32;19996;-73
2022/08/09 09:31:18;;;;;;;;;;;25.50;76.20;;;;;;4399676;32;19952;-73
2022/08/09 09:33:44;;;;;;;;;;;25.70;76.30;;;;;;4399601;32;19949;-73
2022/08/09 09:36:11;;;;;;;;;;;25.90;76.30;;;;;;4400503;32;19964;-73
2022/08/09 09:38:38;;;;;;;;;;;26.00;76.00;;;;;;4399506;32;20242;-73
2022/08/09 09:41:03;;;;;;;;;;;26.10;75.60;;;;;;4399978;32;19949;-73
2022/08/09 09:43:30;;;;;;;;;;;26.10;74.80;;;;;;4399882;32;19950;-73
2022/08/09 09:45:56;;;;;;;;;;;26.10;74.60;;;;;;4400395;32;20001;-73
2022/08/09 09:48:22;;;;;;;;;;;26.30;74.10;;;;;;4399429;32;20327;-73
2022/08/09 09:50:48;;;;;;;;;;;26.30;74.00;;;;;;4400602;32;19956;-73
2022/08/09 09:53:15;;;;;;;;;;;26.60;72.10;;;;;;4399179;32;19945;-73
2022/08/09 09:55:58;;;;;;;;;;;26.70;71.40;;;;;;4411816;32;19967;-73
2022/08/09 09:58:25;;;;;;;;;;;26.60;71.20;;;;;;4395535;32;19957;-73
2022/08/09 10:00:55;;;;;;;;;;;26.60;71.60;;;;;;4399566;32;19953;-73
2022/08/09 10:03:36;;;;;;;;;;;26.80;71.80;;;;;;4399826;32;20005;-73
2022/08/09 10:06:02;;;;;;;;;;;26.90;70.30;;;;;;4386815;32;19968;-73
2022/08/09 10:08:27;;;;;;;;;;;27.00;70.70;;;;;;4398957;32;20215;-73
2022/08/09 10:10:53;;;;;;;;;;;27.10;70.00;;;;;;4399799;32;20336;-73
2022/08/09 10:13:18;;;;;;;;;;;27.30;69.50;;;;;;4398996;32;20350;-73
2022/08/09 10:15:46;;;;;;;;;;;27.40;69.00;;;;;;4399505;32;19942;-73
2022/08/09 10:18:11;;;;;;;;;;;27.60;68.90;;;;;;4399209;32;19945;-73
2022/08/09 10:20:37;;;;;;;;;;;27.70;67.80;;;;;;4400336;32;19949;-73
2022/08/09 10:23:19;;;;;;;;;;;27.70;68.20;;;;;;4399726;32;19953;-73
2022/08/09 10:25:45;;;;;;;;;;;27.80;68.50;;;;;;4400241;32;19953;-73
2022/08/09 10:28:11;;;;;;;;;;;27.90;67.10;;;;;;4399081;32;20377;-73
2022/08/09 10:30:36;;;;;;;;;;;27.90;67.90;;;;;;4399964;32;20392;-73
2022/08/09 10:33:03;;;;;;;;;;;28.20;66.90;;;;;;4399655;32;20337;-73
2022/08/09 10:35:29;;;;;;;;;;;28.50;66.20;;;;;;4399660;32;20028;-73
2022/08/09 10:37:54;;;;;;;;;;;28.60;65.90;;;;;;4398976;32;19949;-73
2022/08/09 10:40:20;;;;;;;;;;;28.70;64.90;;;;;;4399151;32;19945;-73
2022/08/09 10:42:45;;;;;;;;;;;28.60;65.90;;;;;;4398936;32;20400;-73
2022/08/09 10:45:12;;;;;;;;;;;28.70;64.90;;;;;;4399305;32;19957;-73
2022/08/09 10:47:39;;;;;;;;;;;28.90;64.70;;;;;;4388923;32;20398;-73
2022/08/09 10:50:06;;;;;;;;;;;28.90;64.70;;;;;;4385116;32;19999;-73
2022/08/09 10:52:51;;;;;;;;;;;29.10;64.40;;;;;;4384794;32;19952;-73
2022/08/09 10:55:25;;;;;;;;;;;29.30;63.70;;;;;;4395207;32;20456;-73
2022/08/09 10:57:51;;;;;;;;;;;29.60;63.20;;;;;;4398247;32;19954;-73
2022/08/09 11:00:37;;;;;;;;;;;29.50;63.30;;;;;;4399225;32;19942;-73
2022/08/09 11:03:17;;;;;;;;;;;29.60;62.80;;;;;;4399239;32;19950;-73
2022/08/09 11:06:02;;;;;;;;;;;29.80;62.00;;;;;;4399168;32;19938;-73
2022/08/09 11:08:38;;;;;;;;;;;29.90;62.70;;;;;;4388439;32;19958;-73
2022/08/09 11:11:04;;;;;;;;;;;29.20;62.70;;;;;;4399547;32;19968;-73
2022/08/09 11:13:29;;;;;;;;;;;29.00;63.90;;;;;;4398047;32;19942;-73
2022/08/09 11:16:14;;;;;;;;;;;29.40;63.00;;;;;;4396181;32;19950;-73
2022/08/09 11:18:40;;;;;;;;;;;29.70;62.00;;;;;;4385770;32;19982;-73
2022/08/09 11:21:06;;;;;;;;;;;30.10;61.40;;;;;;4398468;32;19953;-73
2022/08/09 11:23:51;;;;;;;;;;;30.10;61.30;;;;;;4398997;32;20005;-73
2022/08/09 11:26:37;;;;;;;;;;;30.50;60.80;;;;;;4387007;32;20398;-73
2022/08/09 11:29:02;;;;;;;;;;;30.70;60.60;;;;;;4387148;32;19937;-74
2022/08/09 11:31:45;;;;;;;;;;;30.40;59.50;;;;;;4400080;32;20006;-73
2022/08/09 11:34:15;;;;;;;;;;;30.60;60.30;;;;;;4401632;32;19953;-73
2022/08/09 11:36:41;;;;;;;;;;;31.10;58.90;;;;;;4400756;32;19953;-73
2022/08/09 11:39:07;;;;;;;;;;;31.20;58.00;;;;;;4400818;32;20283;-73
2022/08/09 11:41:33;;;;;;;;;;;30.10;59.00;;;;;;4400755;32;19950;-73
2022/08/09 11:43:58;;;;;;;;;;;29.70;60.70;;;;;;4401567;32;19999;-73
2022/08/09 11:46:24;;;;;;;;;;;29.30;61.10;;;;;;4400340;32;19990;-73
2022/08/09 11:48:51;;;;;;;;;;;29.20;62.30;;;;;;4400855;32;20367;-73
2022/08/09 11:51:17;;;;;;;;;;;29.70;61.40;;;;;;4400753;32;19954;-73
2022/08/09 11:53:43;;;;;;;;;;;29.80;61.10;;;;;;4401646;32;19995;-73
2022/08/09 11:56:25;;;;;;;;;;;29.40;61.10;;;;;;4415203;32;19953;-73
2022/08/09 11:58:53;;;;;;;;;;;29.10;62.40;;;;;;4416274;32;19957;-73
2022/08/09 12:01:29;;;;;;;;;;;28.80;63.10;;;;;;4416809;32;20337;-73
2022/08/09 12:03:59;;;;;;;;;;;28.50;63.30;;;;;;4415806;32;20410;-73
2022/08/09 12:06:26;;;;;;;;;;;28.70;64.50;;;;;;4413567;32;20013;-73
2022/08/09 12:08:52;;;;;;;;;;;29.50;62.20;;;;;;4401060;32;19954;-74
2022/08/09 12:11:19;;;;;;;;;;;30.40;59.80;;;;;;4400544;32;20006;-73
2022/08/09 12:13:47;;;;;;;;;;;30.70;58.70;;;;;;4400713;32;20340;-74
2022/08/09 12:16:14;;;;;;;;;;;31.40;58.70;;;;;;4400225;32;19961;-74
2022/08/09 12:18:42;;;;;;;;;;;32.00;58.10;;;;;;4399909;32;19949;-74
2022/08/09 12:21:08;;;;;;;;;;;32.30;57.40;;;;;;4401711;32;19942;-74
2022/08/09 12:23:40;;;;;;;;;;;32.30;56.40;;;;;;4400399;32;20283;-74
2022/08/09 12:26:05;;;;;;;;;;;32.10;56.50;;;;;;4401778;32;20370;-74
2022/08/09 12:28:31;;;;;;;;;;;31.60;57.10;;;;;;4400755;32;20067;-73
2022/08/09 12:30:56;;;;;;;;;;;31.20;58.20;;;;;;4400140;32;19988;-73
2022/08/09 12:33:22;;;;;;;;;;;30.50;58.70;;;;;;4400850;32;20315;-73
2022/08/09 12:35:50;;;;;;;;;;;30.00;59.30;;;;;;4401378;32;19982;-73
2022/08/09 12:38:17;;;;;;;;;;;29.50;59.70;;;;;;4401473;32;19960;-73
2022/08/09 12:40:43;;;;;;;;;;;29.20;60.70;;;;;;4400310;32;20279;-73
2022/08/09 12:43:08;;;;;;;;;;;29.00;61.40;;;;;;4399830;32;20662;-73
2022/08/09 12:45:34;;;;;;;;;;;28.80;61.30;;;;;;4400521;32;19956;-73
2022/08/09 12:47:59;;;;;;;;;;;28.60;61.00;;;;;;4400140;32;19945;-73
2022/08/09 12:50:25;;;;;;;;;;;28.70;61.40;;;;;;4400758;32;19956;-73
2022/08/09 12:52:51;;;;;;;;;;;28.70;61.40;;;;;;4400352;32;19945;-73
2022/08/09 12:55:25;;;;;;;;;;;28.70;61.70;;;;;;4409210;32;20000;-73
2022/08/09 12:57:50;;;;;;;;;;;29.30;62.20;;;;;;4415204;32;19945;-73
2022/08/09 13:00:17;;;;;;;;;;;30.40;61.00;;;;;;4416154;32;19957;-74
2022/08/09 13:02:46;;;;;;;;;;;31.50;58.90;;;;;;4415487;32;20353;-74
2022/08/09 13:05:11;;;;;;;;;;;32.70;57.00;;;;;;4415619;32;19974;-74
2022/08/09 13:07:36;;;;;;;;;;;32.90;56.10;;;;;;4402148;32;20012;-74
2022/08/09 13:10:02;;;;;;;;;;;33.10;56.50;;;;;;4400394;32;19952;-74
2022/08/09 13:12:28;;;;;;;;;;;33.00;56.40;;;;;;4400982;32;20377;-74
2022/08/09 13:15:01;;;;;;;;;;;33.70;54.90;;;;;;4399864;32;20008;-74
2022/08/09 13:17:28;;;;;;;;;;;33.70;54.70;;;;;;4399665;32;19961;-74
2022/08/09 13:19:56;;;;;;;;;;;34.30;54.20;;;;;;4401057;32;19945;-74
2022/08/09 13:22:23;;;;;;;;;;;33.50;54.00;;;;;;4400564;32;20008;-74
2022/08/09 13:24:57;;;;;;;;;;;32.20;55.50;;;;;;4400018;32;19953;-74
2022/08/09 13:27:24;;;;;;;;;;;31.50;56.10;;;;;;4399884;32;19965;-74
2022/08/09 13:29:51;;;;;;;;;;;30.90;56.80;;;;;;4400824;32;20353;-74
2022/08/09 13:32:16;;;;;;;;;;;30.50;57.70;;;;;;4400688;32;20362;-72
2022/08/09 13:34:42;;;;;;;;;;;30.50;58.90;;;;;;4399916;32;19946;-74
2022/08/09 13:37:07;;;;;;;;;;;31.20;58.30;;;;;;4398935;32;19946;-72
2022/08/09 13:39:34;;;;;;;;;;;31.70;56.50;;;;;;4399701;32;19942;-74
2022/08/09 13:42:02;;;;;;;;;;;32.00;55.90;;;;;;4400719;32;20358;-73
2022/08/09 13:44:28;;;;;;;;;;;32.40;55.50;;;;;;4399148;32;19954;-73
2022/08/09 13:46:54;;;;;;;;;;;32.90;55.70;;;;;;4401059;32;19952;-73
2022/08/09 13:49:19;;;;;;;;;;;33.40;54.80;;;;;;4399996;32;19993;-73
2022/08/09 13:51:44;;;;;;;;;;;33.30;54.80;;;;;;4399930;32;20398;-73
2022/08/09 13:54:10;;;;;;;;;;;32.70;55.30;;;;;;4400379;32;19966;-74
2022/08/09 13:56:35;;;;;;;;;;;32.10;56.10;;;;;;4397873;32;20365;-73
2022/08/09 13:59:01;;;;;;;;;;;31.60;56.70;;;;;;4398623;32;19950;-73
2022/08/09 14:01:26;;;;;;;;;;;31.60;56.70;;;;;;4399811;32;19956;-74
2022/08/09 14:03:52;;;;;;;;;;;31.20;56.90;;;;;;4399304;32;20302;-74
2022/08/09 14:06:18;;;;;;;;;;;31.50;56.70;;;;;;4399046;32;19957;-73
2022/08/09 14:08:44;;;;;;;;;;;31.50;56.70;;;;;;4399672;32;19949;-73
2022/08/09 14:11:09;;;;;;;;;;;31.40;56.80;;;;;;4400448;32;20008;-73
2022/08/09 14:13:35;;;;;;;;;;;31.30;56.70;;;;;;4399210;32;19999;-73